sensor_id;sensor_type;location;lat;lon;timestamp;P1;durP1;ratioP1;P2;durP2;ratioP2
12369;SDS011;6249;52.128;9.986;2022-12-05T00:01:19;58.97;;;24.70;;
12369;SDS011;6249;52.128;9.986;2022-12-05T00:04:43;66.73;;;25.47;;
12369;SDS011;6249;52.128;9.986;2022-12-05T00:08:03;82.97;;;27.43;;
12369;SDS011;6249;52.128;9.986;2022-12-05T00:11:27;88.30;;;28.20;;
12369;SDS011;6249;52.128;9.986;2022-12-05T00:14:50;60.53;;;26.10;;
12369;SDS011;6249;52.128;9.986;2022-12-05T00:18:10;80.63;;;26.07;;
12369;SDS011;6249;52.128;9.986;2022-12-05T00:21:31;90.07;;;29.70;;
12369;SDS011;6249;52.128;9.986;2022-12-05T00:24:53;71.30;;;27.80;;
12369;SDS011;6249;52.128;9.986;2022-12-05T00:28:16;70.63;;;27.20;;
12369;SDS011;6249;52.128;9.986;2022-12-05T00:31:36;73.50;;;26.40;;
12369;SDS011;6249;52.128;9.986;2022-12-05T00:34:57;80.27;;;29.00;;
12369;SDS011;6249;52.128;9.986;2022-12-05T00:38:18;85.10;;;28.73;;
12369;SDS011;6249;52.128;9.986;2022-12-05T00:41:39;84.10;;;25.90;;
12369;SDS011;6249;52.128;9.986;2022-12-05T00:44:59;98.23;;;29.37;;
12369;SDS011;6249;52.128;9.986;2022-12-05T00:48:20;80.30;;;27.40;;
12369;SDS011;6249;52.128;9.986;2022-12-05T00:51:41;61.13;;;26.80;;
12369;SDS011;6249;52.128;9.986;2022-12-05T00:55:07;79.50;;;26.83;;
12369;SDS011;6249;52.128;9.986;2022-12-05T00:58:28;70.53;;;26.90;;
12369;SDS011;6249;52.128;9.986;2022-12-05T01:01:50;77.70;;;28.63;;
12369;SDS011;6249;52.128;9.986;2022-12-05T01:05:11;64.30;;;26.03;;
12369;SDS011;6249;52.128;9.986;2022-12-05T01:08:32;87.73;;;29.57;;
12369;SDS011;6249;52.128;9.986;2022-12-05T01:11:54;65.53;;;26.27;;
12369;SDS011;6249;52.128;9.986;2022-12-05T01:15:16;77.30;;;27.07;;
12369;SDS011;6249;52.128;9.986;2022-12-05T01:18:37;80.57;;;27.10;;
12369;SDS011;6249;52.128;9.986;2022-12-05T01:21:58;95.90;;;29.47;;
12369;SDS011;6249;52.128;9.986;2022-12-05T01:25:21;80.53;;;26.90;;
12369;SDS011;6249;52.128;9.986;2022-12-05T01:28:45;70.47;;;26.10;;
12369;SDS011;6249;52.128;9.986;2022-12-05T01:32:08;66.30;;;25.40;;
12369;SDS011;6249;52.128;9.986;2022-12-05T01:35:33;79.23;;;27.83;;
12369;SDS011;6249;52.128;9.986;2022-12-05T01:38:57;66.03;;;26.93;;
12369;SDS011;6249;52.128;9.986;2022-12-05T01:42:18;71.57;;;26.70;;
12369;SDS011;6249;52.128;9.986;2022-12-05T01:45:39;69.03;;;25.20;;
12369;SDS011;6249;52.128;9.986;2022-12-05T01:49:12;67.30;;;25.27;;
12369;SDS011;6249;52.128;9.986;2022-12-05T01:52:37;70.87;;;26.30;;
12369;SDS011;6249;52.128;9.986;2022-12-05T01:55:59;66.83;;;26.37;;
12369;SDS011;6249;52.128;9.986;2022-12-05T01:59:20;57.60;;;25.27;;
12369;SDS011;6249;52.128;9.986;2022-12-05T02:02:49;67.40;;;25.13;;
12369;SDS011;6249;52.128;9.986;2022-12-05T02:06:15;63.90;;;24.77;;
12369;SDS011;6249;52.128;9.986;2022-12-05T02:09:40;79.70;;;25.80;;
12369;SDS011;6249;52.128;9.986;2022-12-05T02:13:06;71.33;;;26.33;;
12369;SDS011;6249;52.128;9.986;2022-12-05T02:20:16;57.90;;;23.00;;
12369;SDS011;6249;52.128;9.986;2022-12-05T02:30:54;82.80;;;27.80;;
12369;SDS011;6249;52.128;9.986;2022-12-05T02:34:34;79.80;;;28.10;;
12369;SDS011;6249;52.128;9.986;2022-12-05T02:41:40;73.20;;;28.40;;
12369;SDS011;6249;52.128;9.986;2022-12-05T02:45:21;80.17;;;29.40;;
12369;SDS011;6249;52.128;9.986;2022-12-05T02:48:46;82.57;;;28.03;;
12369;SDS011;6249;52.128;9.986;2022-12-05T02:52:13;72.60;;;27.20;;
12369;SDS011;6249;52.128;9.986;2022-12-05T02:55:39;67.37;;;27.17;;
12369;SDS011;6249;52.128;9.986;2022-12-05T02:59:03;82.07;;;32.50;;
12369;SDS011;6249;52.128;9.986;2022-12-05T03:02:29;77.50;;;37.83;;
12369;SDS011;6249;52.128;9.986;2022-12-05T03:09:53;137.97;;;57.17;;
12369;SDS011;6249;52.128;9.986;2022-12-05T03:13:26;121.43;;;50.97;;
12369;SDS011;6249;52.128;9.986;2022-12-05T03:16:53;176.33;;;60.77;;
12369;SDS011;6249;52.128;9.986;2022-12-05T03:23:42;72.90;;;30.17;;
12369;SDS011;6249;52.128;9.986;2022-12-05T03:30:45;61.20;;;25.07;;
12369;SDS011;6249;52.128;9.986;2022-12-05T03:34:53;104.13;;;39.50;;
12369;SDS011;6249;52.128;9.986;2022-12-05T03:37:55;80.50;;;33.80;;
12369;SDS011;6249;52.128;9.986;2022-12-05T03:45:15;47.93;;;21.33;;
12369;SDS011;6249;52.128;9.986;2022-12-05T03:48:55;52.43;;;22.10;;
12369;SDS011;6249;52.128;9.986;2022-12-05T03:52:41;49.97;;;22.17;;
12369;SDS011;6249;52.128;9.986;2022-12-05T03:56:13;51.67;;;22.70;;
12369;SDS011;6249;52.128;9.986;2022-12-05T04:00:13;53.20;;;21.70;;
12369;SDS011;6249;52.128;9.986;2022-12-05T04:03:38;55.40;;;21.97;;
12369;SDS011;6249;52.128;9.986;2022-12-05T04:07:04;55.97;;;22.20;;
12369;SDS011;6249;52.128;9.986;2022-12-05T04:10:27;54.43;;;22.33;;
12369;SDS011;6249;52.128;9.986;2022-12-05T04:13:58;55.13;;;21.67;;
12369;SDS011;6249;52.128;9.986;2022-12-05T04:21:10;40.17;;;18.17;;
12369;SDS011;6249;52.128;9.986;2022-12-05T04:24:51;43.50;;;17.70;;
12369;SDS011;6249;52.128;9.986;2022-12-05T04:28:55;36.30;;;15.60;;
12369;SDS011;6249;52.128;9.986;2022-12-05T04:32:22;37.90;;;17.80;;
12369;SDS011;6249;52.128;9.986;2022-12-05T04:35:51;51.57;;;19.80;;
12369;SDS011;6249;52.128;9.986;2022-12-05T04:39:26;36.10;;;17.03;;
12369;SDS011;6249;52.128;9.986;2022-12-05T04:43:01;35.40;;;17.70;;
12369;SDS011;6249;52.128;9.986;2022-12-05T04:46:23;28.73;;;15.20;;
12369;SDS011;6249;52.128;9.986;2022-12-05T04:49:51;35.27;;;15.83;;
12369;SDS011;6249;52.128;9.986;2022-12-05T04:53:13;36.80;;;17.13;;
12369;SDS011;6249;52.128;9.986;2022-12-05T04:56:35;28.60;;;15.03;;
12369;SDS011;6249;52.128;9.986;2022-12-05T05:00:00;45.43;;;18.53;;
12369;SDS011;6249;52.128;9.986;2022-12-05T05:03:41;36.27;;;17.10;;
12369;SDS011;6249;52.128;9.986;2022-12-05T05:07:13;36.03;;;15.50;;
12369;SDS011;6249;52.128;9.986;2022-12-05T05:10:36;30.90;;;16.40;;
12369;SDS011;6249;52.128;9.986;2022-12-05T05:14:00;40.23;;;18.37;;
12369;SDS011;6249;52.128;9.986;2022-12-05T05:17:22;35.43;;;15.17;;
12369;SDS011;6249;52.128;9.986;2022-12-05T05:20:44;34.07;;;14.97;;
12369;SDS011;6249;52.128;9.986;2022-12-05T05:24:05;40.93;;;15.67;;
12369;SDS011;6249;52.128;9.986;2022-12-05T05:27:31;25.47;;;13.37;;
12369;SDS011;6249;52.128;9.986;2022-12-05T05:30:51;26.90;;;12.63;;
12369;SDS011;6249;52.128;9.986;2022-12-05T05:34:12;27.60;;;12.13;;
12369;SDS011;6249;52.128;9.986;2022-12-05T05:37:35;25.00;;;12.47;;
12369;SDS011;6249;52.128;9.986;2022-12-05T05:40:58;22.47;;;12.30;;
12369;SDS011;6249;52.128;9.986;2022-12-05T05:44:18;28.67;;;12.37;;
12369;SDS011;6249;52.128;9.986;2022-12-05T05:47:39;24.23;;;11.27;;
12369;SDS011;6249;52.128;9.986;2022-12-05T05:51:06;23.50;;;12.10;;
12369;SDS011;6249;52.128;9.986;2022-12-05T05:54:32;24.50;;;11.43;;
12369;SDS011;6249;52.128;9.986;2022-12-05T05:57:55;21.20;;;10.57;;
12369;SDS011;6249;52.128;9.986;2022-12-05T06:01:17;17.80;;;10.20;;
12369;SDS011;6249;52.128;9.986;2022-12-05T06:04:41;18.70;;;9.80;;
12369;SDS011;6249;52.128;9.986;2022-12-05T06:08:05;18.27;;;9.73;;
12369;SDS011;6249;52.128;9.986;2022-12-05T06:11:25;19.43;;;10.63;;
12369;SDS011;6249;52.128;9.986;2022-12-05T06:14:49;20.03;;;10.20;;
12369;SDS011;6249;52.128;9.986;2022-12-05T06:18:13;19.17;;;10.33;;
12369;SDS011;6249;52.128;9.986;2022-12-05T06:21:33;17.10;;;10.30;;
12369;SDS011;6249;52.128;9.986;2022-12-05T06:24:57;18.70;;;10.10;;
12369;SDS011;6249;52.128;9.986;2022-12-05T06:28:18;17.10;;;9.60;;
12369;SDS011;6249;52.128;9.986;2022-12-05T06:31:44;16.23;;;9.60;;
12369;SDS011;6249;52.128;9.986;2022-12-05T06:35:05;13.30;;;8.00;;
12369;SDS011;6249;52.128;9.986;2022-12-05T06:38:34;15.03;;;8.13;;
12369;SDS011;6249;52.128;9.986;2022-12-05T06:41:57;15.80;;;8.23;;
12369;SDS011;6249;52.128;9.986;2022-12-05T06:45:20;13.50;;;8.20;;
12369;SDS011;6249;52.128;9.986;2022-12-05T06:48:43;15.00;;;8.60;;
12369;SDS011;6249;52.128;9.986;2022-12-05T06:52:06;15.20;;;8.80;;
12369;SDS011;6249;52.128;9.986;2022-12-05T06:55:27;14.47;;;7.70;;
12369;SDS011;6249;52.128;9.986;2022-12-05T06:58:49;16.40;;;9.60;;
12369;SDS011;6249;52.128;9.986;2022-12-05T07:02:12;11.03;;;7.60;;
12369;SDS011;6249;52.128;9.986;2022-12-05T07:05:33;16.90;;;7.03;;
12369;SDS011;6249;52.128;9.986;2022-12-05T07:08:58;13.07;;;8.30;;
12369;SDS011;6249;52.128;9.986;2022-12-05T07:12:19;11.57;;;7.33;;
12369;SDS011;6249;52.128;9.986;2022-12-05T07:15:39;12.17;;;6.77;;
12369;SDS011;6249;52.128;9.986;2022-12-05T07:19:00;11.80;;;7.87;;
12369;SDS011;6249;52.128;9.986;2022-12-05T07:22:23;14.87;;;8.27;;
12369;SDS011;6249;52.128;9.986;2022-12-05T07:25:46;15.70;;;9.20;;
12369;SDS011;6249;52.128;9.986;2022-12-05T07:29:06;16.93;;;9.13;;
12369;SDS011;6249;52.128;9.986;2022-12-05T07:32:30;18.77;;;9.40;;
12369;SDS011;6249;52.128;9.986;2022-12-05T07:35:57;15.50;;;8.87;;
12369;SDS011;6249;52.128;9.986;2022-12-05T07:39:22;13.37;;;7.40;;
12369;SDS011;6249;52.128;9.986;2022-12-05T07:42:42;13.80;;;8.53;;
12369;SDS011;6249;52.128;9.986;2022-12-05T07:46:09;15.17;;;8.83;;
12369;SDS011;6249;52.128;9.986;2022-12-05T07:49:30;15.10;;;8.90;;
12369;SDS011;6249;52.128;9.986;2022-12-05T07:52:53;15.07;;;9.43;;
12369;SDS011;6249;52.128;9.986;2022-12-05T07:56:14;10.77;;;6.87;;
12369;SDS011;6249;52.128;9.986;2022-12-05T07:59:36;17.77;;;9.53;;
12369;SDS011;6249;52.128;9.986;2022-12-05T08:02:57;13.30;;;8.50;;
12369;SDS011;6249;52.128;9.986;2022-12-05T08:06:22;34.17;;;20.43;;
12369;SDS011;6249;52.128;9.986;2022-12-05T08:09:47;22.77;;;13.53;;
12369;SDS011;6249;52.128;9.986;2022-12-05T08:13:07;22.30;;;12.70;;
12369;SDS011;6249;52.128;9.986;2022-12-05T08:16:28;21.37;;;10.40;;
12369;SDS011;6249;52.128;9.986;2022-12-05T08:19:50;16.77;;;9.60;;
12369;SDS011;6249;52.128;9.986;2022-12-05T08:23:10;19.13;;;10.67;;
12369;SDS011;6249;52.128;9.986;2022-12-05T08:26:31;20.33;;;11.03;;
12369;SDS011;6249;52.128;9.986;2022-12-05T08:29:53;15.93;;;9.40;;
12369;SDS011;6249;52.128;9.986;2022-12-05T08:33:14;18.20;;;10.60;;
12369;SDS011;6249;52.128;9.986;2022-12-05T08:36:34;16.30;;;9.47;;
12369;SDS011;6249;52.128;9.986;2022-12-05T08:39:58;21.93;;;12.33;;
12369;SDS011;6249;52.128;9.986;2022-12-05T08:43:23;28.87;;;14.17;;
12369;SDS011;6249;52.128;9.986;2022-12-05T08:46:48;78.10;;;29.63;;
12369;SDS011;6249;52.128;9.986;2022-12-05T08:50:12;32.43;;;14.33;;
12369;SDS011;6249;52.128;9.986;2022-12-05T08:53:32;22.17;;;12.73;;
12369;SDS011;6249;52.128;9.986;2022-12-05T08:56:54;17.40;;;9.73;;
12369;SDS011;6249;52.128;9.986;2022-12-05T09:00:17;19.57;;;11.23;;
12369;SDS011;6249;52.128;9.986;2022-12-05T09:03:38;14.47;;;8.93;;
12369;SDS011;6249;52.128;9.986;2022-12-05T09:07:00;23.90;;;12.77;;
12369;SDS011;6249;52.128;9.986;2022-12-05T09:10:22;22.77;;;12.93;;
12369;SDS011;6249;52.128;9.986;2022-12-05T09:13:43;21.27;;;13.60;;
12369;SDS011;6249;52.128;9.986;2022-12-05T09:17:04;20.43;;;12.93;;
12369;SDS011;6249;52.128;9.986;2022-12-05T09:20:28;20.50;;;12.43;;
12369;SDS011;6249;52.128;9.986;2022-12-05T09:23:49;18.90;;;12.00;;
12369;SDS011;6249;52.128;9.986;2022-12-05T09:27:10;21.73;;;11.33;;
12369;SDS011;6249;52.128;9.986;2022-12-05T09:30:31;18.47;;;11.57;;
12369;SDS011;6249;52.128;9.986;2022-12-05T09:33:51;20.13;;;12.20;;
12369;SDS011;6249;52.128;9.986;2022-12-05T09:37:15;16.80;;;10.57;;
12369;SDS011;6249;52.128;9.986;2022-12-05T09:40:39;21.90;;;12.07;;
12369;SDS011;6249;52.128;9.986;2022-12-05T09:44:08;20.00;;;11.40;;
12369;SDS011;6249;52.128;9.986;2022-12-05T09:51:13;27.50;;;14.47;;
12369;SDS011;6249;52.128;9.986;2022-12-05T09:54:34;23.13;;;13.70;;
12369;SDS011;6249;52.128;9.986;2022-12-05T09:57:57;20.63;;;11.20;;
12369;SDS011;6249;52.128;9.986;2022-12-05T10:04:59;26.90;;;15.90;;
12369;SDS011;6249;52.128;9.986;2022-12-05T10:08:26;23.10;;;13.37;;
12369;SDS011;6249;52.128;9.986;2022-12-05T10:12:15;19.77;;;11.80;;
12369;SDS011;6249;52.128;9.986;2022-12-05T10:15:53;19.73;;;11.13;;
12369;SDS011;6249;52.128;9.986;2022-12-05T10:19:26;21.27;;;11.80;;
12369;SDS011;6249;52.128;9.986;2022-12-05T10:22:55;20.93;;;12.47;;
12369;SDS011;6249;52.128;9.986;2022-12-05T10:26:29;24.53;;;14.20;;
12369;SDS011;6249;52.128;9.986;2022-12-05T10:29:57;22.73;;;12.60;;
12369;SDS011;6249;52.128;9.986;2022-12-05T10:33:22;33.43;;;18.23;;
12369;SDS011;6249;52.128;9.986;2022-12-05T10:36:56;25.80;;;15.00;;
12369;SDS011;6249;52.128;9.986;2022-12-05T10:40:21;22.50;;;13.97;;
12369;SDS011;6249;52.128;9.986;2022-12-05T10:43:44;23.90;;;14.10;;
12369;SDS011;6249;52.128;9.986;2022-12-05T10:47:05;25.50;;;14.10;;
12369;SDS011;6249;52.128;9.986;2022-12-05T10:50:31;25.73;;;14.07;;
12369;SDS011;6249;52.128;9.986;2022-12-05T10:53:55;18.67;;;11.03;;
12369;SDS011;6249;52.128;9.986;2022-12-05T10:57:20;16.80;;;10.27;;
12369;SDS011;6249;52.128;9.986;2022-12-05T11:00:45;17.53;;;10.07;;
12369;SDS011;6249;52.128;9.986;2022-12-05T11:11:09;14.77;;;8.70;;
12369;SDS011;6249;52.128;9.986;2022-12-05T11:14:40;15.63;;;9.07;;
12369;SDS011;6249;52.128;9.986;2022-12-05T11:18:32;17.37;;;10.10;;
12369;SDS011;6249;52.128;9.986;2022-12-05T11:21:53;17.40;;;10.43;;
12369;SDS011;6249;52.128;9.986;2022-12-05T11:28:49;13.67;;;9.10;;
12369;SDS011;6249;52.128;9.986;2022-12-05T11:32:23;13.30;;;8.80;;
12369;SDS011;6249;52.128;9.986;2022-12-05T11:35:48;13.60;;;7.80;;
12369;SDS011;6249;52.128;9.986;2022-12-05T11:39:12;16.10;;;9.43;;
12369;SDS011;6249;52.128;9.986;2022-12-05T11:57:27;17.53;;;10.97;;
12369;SDS011;6249;52.128;9.986;2022-12-05T12:15:38;11.07;;;6.97;;
12369;SDS011;6249;52.128;9.986;2022-12-05T12:30:24;17.23;;;10.73;;
12369;SDS011;6249;52.128;9.986;2022-12-05T12:34:22;18.43;;;10.30;;
12369;SDS011;6249;52.128;9.986;2022-12-05T12:45:45;18.07;;;11.60;;
12369;SDS011;6249;52.128;9.986;2022-12-05T12:53:29;19.63;;;11.23;;
12369;SDS011;6249;52.128;9.986;2022-12-05T13:04:41;17.77;;;10.77;;
12369;SDS011;6249;52.128;9.986;2022-12-05T13:11:34;20.60;;;11.80;;
12369;SDS011;6249;52.128;9.986;2022-12-05T13:15:00;16.30;;;10.10;;
12369;SDS011;6249;52.128;9.986;2022-12-05T13:18:25;20.90;;;13.27;;
12369;SDS011;6249;52.128;9.986;2022-12-05T13:21:46;17.03;;;9.77;;
12369;SDS011;6249;52.128;9.986;2022-12-05T13:25:10;16.13;;;10.40;;
12369;SDS011;6249;52.128;9.986;2022-12-05T13:28:34;14.63;;;9.43;;
12369;SDS011;6249;52.128;9.986;2022-12-05T13:32:33;16.37;;;9.40;;
12369;SDS011;6249;52.128;9.986;2022-12-05T13:36:03;15.70;;;8.90;;
12369;SDS011;6249;52.128;9.986;2022-12-05T13:39:49;16.93;;;9.47;;
12369;SDS011;6249;52.128;9.986;2022-12-05T13:43:33;16.80;;;11.00;;
12369;SDS011;6249;52.128;9.986;2022-12-05T13:54:23;119.03;;;50.10;;
12369;SDS011;6249;52.128;9.986;2022-12-05T13:57:47;37.93;;;17.40;;
12369;SDS011;6249;52.128;9.986;2022-12-05T14:01:42;30.40;;;14.83;;
12369;SDS011;6249;52.128;9.986;2022-12-05T14:05:33;19.70;;;11.73;;
12369;SDS011;6249;52.128;9.986;2022-12-05T14:08:58;19.83;;;11.50;;
12369;SDS011;6249;52.128;9.986;2022-12-05T14:15:40;22.03;;;13.80;;
12369;SDS011;6249;52.128;9.986;2022-12-05T14:22:46;27.07;;;16.23;;
12369;SDS011;6249;52.128;9.986;2022-12-05T14:33:30;25.60;;;14.20;;
12369;SDS011;6249;52.128;9.986;2022-12-05T14:40:34;25.13;;;14.80;;
12369;SDS011;6249;52.128;9.986;2022-12-05T14:43:58;26.60;;;15.20;;
12369;SDS011;6249;52.128;9.986;2022-12-05T14:47:22;23.90;;;14.03;;
12369;SDS011;6249;52.128;9.986;2022-12-05T14:50:50;51.90;;;22.37;;
12369;SDS011;6249;52.128;9.986;2022-12-05T14:54:15;44.90;;;21.87;;
12369;SDS011;6249;52.128;9.986;2022-12-05T14:57:44;46.53;;;24.20;;
12369;SDS011;6249;52.128;9.986;2022-12-05T15:04:41;28.00;;;17.03;;
12369;SDS011;6249;52.128;9.986;2022-12-05T15:08:12;30.53;;;17.37;;
12369;SDS011;6249;52.128;9.986;2022-12-05T15:11:34;39.13;;;19.50;;
12369;SDS011;6249;52.128;9.986;2022-12-05T15:18:32;38.27;;;19.90;;
12369;SDS011;6249;52.128;9.986;2022-12-05T15:21:57;27.07;;;17.30;;
12369;SDS011;6249;52.128;9.986;2022-12-05T15:25:26;38.60;;;18.07;;
12369;SDS011;6249;52.128;9.986;2022-12-05T15:28:58;27.57;;;15.37;;
12369;SDS011;6249;52.128;9.986;2022-12-05T15:32:23;30.83;;;14.93;;
12369;SDS011;6249;52.128;9.986;2022-12-05T15:35:46;29.00;;;15.23;;
12369;SDS011;6249;52.128;9.986;2022-12-05T15:39:20;32.23;;;17.17;;
12369;SDS011;6249;52.128;9.986;2022-12-05T15:42:54;42.90;;;20.77;;
12369;SDS011;6249;52.128;9.986;2022-12-05T15:46:20;41.13;;;20.80;;
12369;SDS011;6249;52.128;9.986;2022-12-05T15:49:46;41.70;;;21.10;;
12369;SDS011;6249;52.128;9.986;2022-12-05T15:53:23;34.20;;;18.63;;
12369;SDS011;6249;52.128;9.986;2022-12-05T15:56:51;30.70;;;18.03;;
12369;SDS011;6249;52.128;9.986;2022-12-05T16:00:17;29.03;;;17.10;;
12369;SDS011;6249;52.128;9.986;2022-12-05T16:07:08;18.57;;;11.47;;
12369;SDS011;6249;52.128;9.986;2022-12-05T16:10:34;20.80;;;12.83;;
12369;SDS011;6249;52.128;9.986;2022-12-05T16:13:56;23.13;;;13.63;;
12369;SDS011;6249;52.128;9.986;2022-12-05T16:17:25;22.93;;;13.27;;
12369;SDS011;6249;52.128;9.986;2022-12-05T16:20:47;30.93;;;16.60;;
12369;SDS011;6249;52.128;9.986;2022-12-05T16:24:27;32.27;;;19.30;;
12369;SDS011;6249;52.128;9.986;2022-12-05T16:27:59;39.73;;;19.70;;
12369;SDS011;6249;52.128;9.986;2022-12-05T16:31:31;38.43;;;21.30;;
12369;SDS011;6249;52.128;9.986;2022-12-05T16:34:52;45.57;;;23.77;;
12369;SDS011;6249;52.128;9.986;2022-12-05T16:38:20;39.23;;;21.03;;
12369;SDS011;6249;52.128;9.986;2022-12-05T16:41:44;33.10;;;16.80;;
12369;SDS011;6249;52.128;9.986;2022-12-05T16:45:07;36.87;;;19.17;;
12369;SDS011;6249;52.128;9.986;2022-12-05T16:49:16;30.70;;;16.77;;
12369;SDS011;6249;52.128;9.986;2022-12-05T16:52:37;39.33;;;19.90;;
12369;SDS011;6249;52.128;9.986;2022-12-05T16:55:58;34.00;;;18.23;;
12369;SDS011;6249;52.128;9.986;2022-12-05T16:59:24;47.90;;;27.17;;
12369;SDS011;6249;52.128;9.986;2022-12-05T17:02:51;33.53;;;20.10;;
12369;SDS011;6249;52.128;9.986;2022-12-05T17:06:14;42.87;;;21.43;;
12369;SDS011;6249;52.128;9.986;2022-12-05T17:09:35;30.13;;;17.03;;
12369;SDS011;6249;52.128;9.986;2022-12-05T17:12:56;29.67;;;17.40;;
12369;SDS011;6249;52.128;9.986;2022-12-05T17:16:19;27.70;;;15.80;;
12369;SDS011;6249;52.128;9.986;2022-12-05T17:19:40;28.17;;;15.90;;
12369;SDS011;6249;52.128;9.986;2022-12-05T17:23:03;25.60;;;15.90;;
12369;SDS011;6249;52.128;9.986;2022-12-05T17:26:32;26.40;;;16.67;;
12369;SDS011;6249;52.128;9.986;2022-12-05T17:29:52;30.47;;;17.60;;
12369;SDS011;6249;52.128;9.986;2022-12-05T17:33:16;30.30;;;18.90;;
12369;SDS011;6249;52.128;9.986;2022-12-05T17:36:37;39.50;;;20.00;;
12369;SDS011;6249;52.128;9.986;2022-12-05T17:39:58;23.93;;;14.53;;
12369;SDS011;6249;52.128;9.986;2022-12-05T17:43:21;32.37;;;19.57;;
12369;SDS011;6249;52.128;9.986;2022-12-05T17:46:42;27.57;;;15.83;;
12369;SDS011;6249;52.128;9.986;2022-12-05T17:50:03;42.03;;;22.10;;
12369;SDS011;6249;52.128;9.986;2022-12-05T17:53:25;37.03;;;19.53;;
12369;SDS011;6249;52.128;9.986;2022-12-05T17:56:45;39.87;;;17.30;;
12369;SDS011;6249;52.128;9.986;2022-12-05T18:00:06;28.97;;;15.10;;
12369;SDS011;6249;52.128;9.986;2022-12-05T18:03:28;25.90;;;14.43;;
12369;SDS011;6249;52.128;9.986;2022-12-05T18:06:51;19.80;;;12.27;;
12369;SDS011;6249;52.128;9.986;2022-12-05T18:10:15;19.73;;;12.37;;
12369;SDS011;6249;52.128;9.986;2022-12-05T18:13:38;19.97;;;12.20;;
12369;SDS011;6249;52.128;9.986;2022-12-05T18:16:58;22.13;;;13.07;;
12369;SDS011;6249;52.128;9.986;2022-12-05T18:20:21;20.47;;;13.27;;
12369;SDS011;6249;52.128;9.986;2022-12-05T18:23:42;20.17;;;12.37;;
12369;SDS011;6249;52.128;9.986;2022-12-05T18:27:03;20.03;;;10.93;;
12369;SDS011;6249;52.128;9.986;2022-12-05T18:30:23;22.23;;;13.10;;
12369;SDS011;6249;52.128;9.986;2022-12-05T18:33:44;19.23;;;12.20;;
12369;SDS011;6249;52.128;9.986;2022-12-05T18:37:08;17.67;;;11.17;;
12369;SDS011;6249;52.128;9.986;2022-12-05T18:40:31;18.90;;;11.67;;
12369;SDS011;6249;52.128;9.986;2022-12-05T18:43:52;21.10;;;12.50;;
12369;SDS011;6249;52.128;9.986;2022-12-05T18:47:12;17.40;;;10.97;;
12369;SDS011;6249;52.128;9.986;2022-12-05T18:50:33;19.27;;;9.70;;
12369;SDS011;6249;52.128;9.986;2022-12-05T18:53:54;15.40;;;10.97;;
12369;SDS011;6249;52.128;9.986;2022-12-05T18:57:17;19.90;;;12.43;;
12369;SDS011;6249;52.128;9.986;2022-12-05T19:00:40;18.50;;;12.23;;
12369;SDS011;6249;52.128;9.986;2022-12-05T19:04:02;19.30;;;11.70;;
12369;SDS011;6249;52.128;9.986;2022-12-05T19:07:23;15.00;;;9.53;;
12369;SDS011;6249;52.128;9.986;2022-12-05T19:10:44;18.93;;;10.87;;
12369;SDS011;6249;52.128;9.986;2022-12-05T19:14:04;18.93;;;10.13;;
12369;SDS011;6249;52.128;9.986;2022-12-05T19:17:29;17.67;;;11.23;;
12369;SDS011;6249;52.128;9.986;2022-12-05T19:20:50;17.40;;;10.73;;
12369;SDS011;6249;52.128;9.986;2022-12-05T19:24:12;16.67;;;10.23;;
12369;SDS011;6249;52.128;9.986;2022-12-05T19:27:39;19.97;;;11.60;;
12369;SDS011;6249;52.128;9.986;2022-12-05T19:31:00;19.83;;;12.00;;
12369;SDS011;6249;52.128;9.986;2022-12-05T19:34:28;23.80;;;13.20;;
12369;SDS011;6249;52.128;9.986;2022-12-05T19:37:53;18.97;;;10.10;;
12369;SDS011;6249;52.128;9.986;2022-12-05T19:41:19;16.57;;;10.17;;
12369;SDS011;6249;52.128;9.986;2022-12-05T19:44:43;18.93;;;11.50;;
12369;SDS011;6249;52.128;9.986;2022-12-05T19:48:09;17.80;;;10.60;;
12369;SDS011;6249;52.128;9.986;2022-12-05T19:51:35;20.40;;;12.33;;
12369;SDS011;6249;52.128;9.986;2022-12-05T19:54:55;26.80;;;16.07;;
12369;SDS011;6249;52.128;9.986;2022-12-05T19:58:17;26.60;;;16.30;;
12369;SDS011;6249;52.128;9.986;2022-12-05T20:01:38;23.60;;;14.27;;
12369;SDS011;6249;52.128;9.986;2022-12-05T20:05:01;22.37;;;12.63;;
12369;SDS011;6249;52.128;9.986;2022-12-05T20:08:23;22.43;;;12.53;;
12369;SDS011;6249;52.128;9.986;2022-12-05T20:11:44;19.93;;;12.20;;
12369;SDS011;6249;52.128;9.986;2022-12-05T20:15:06;18.83;;;11.07;;
12369;SDS011;6249;52.128;9.986;2022-12-05T20:18:27;16.80;;;10.77;;
12369;SDS011;6249;52.128;9.986;2022-12-05T20:21:50;17.70;;;11.00;;
12369;SDS011;6249;52.128;9.986;2022-12-05T20:25:11;27.07;;;13.13;;
12369;SDS011;6249;52.128;9.986;2022-12-05T20:28:32;16.20;;;9.67;;
12369;SDS011;6249;52.128;9.986;2022-12-05T20:31:53;18.03;;;11.10;;
12369;SDS011;6249;52.128;9.986;2022-12-05T20:35:15;21.97;;;12.10;;
12369;SDS011;6249;52.128;9.986;2022-12-05T20:38:36;17.40;;;9.73;;
12369;SDS011;6249;52.128;9.986;2022-12-05T20:41:59;15.37;;;10.20;;
12369;SDS011;6249;52.128;9.986;2022-12-05T20:45:22;19.80;;;9.80;;
12369;SDS011;6249;52.128;9.986;2022-12-05T20:48:45;21.43;;;11.40;;
12369;SDS011;6249;52.128;9.986;2022-12-05T20:52:09;20.57;;;10.77;;
12369;SDS011;6249;52.128;9.986;2022-12-05T20:55:29;19.67;;;11.67;;
12369;SDS011;6249;52.128;9.986;2022-12-05T20:58:50;21.00;;;11.60;;
12369;SDS011;6249;52.128;9.986;2022-12-05T21:02:16;19.97;;;10.77;;
12369;SDS011;6249;52.128;9.986;2022-12-05T21:05:38;27.73;;;13.70;;
12369;SDS011;6249;52.128;9.986;2022-12-05T21:08:59;23.20;;;11.07;;
12369;SDS011;6249;52.128;9.986;2022-12-05T21:12:23;22.10;;;11.60;;
12369;SDS011;6249;52.128;9.986;2022-12-05T21:15:46;19.80;;;10.43;;
12369;SDS011;6249;52.128;9.986;2022-12-05T21:19:06;19.23;;;11.40;;
12369;SDS011;6249;52.128;9.986;2022-12-05T21:22:27;21.40;;;11.87;;
12369;SDS011;6249;52.128;9.986;2022-12-05T21:25:50;21.20;;;11.57;;
12369;SDS011;6249;52.128;9.986;2022-12-05T21:29:11;22.00;;;12.07;;
12369;SDS011;6249;52.128;9.986;2022-12-05T21:32:32;20.57;;;11.73;;
12369;SDS011;6249;52.128;9.986;2022-12-05T21:35:55;18.73;;;10.57;;
12369;SDS011;6249;52.128;9.986;2022-12-05T21:39:17;20.57;;;12.17;;
12369;SDS011;6249;52.128;9.986;2022-12-05T21:42:40;19.33;;;11.27;;
12369;SDS011;6249;52.128;9.986;2022-12-05T21:46:01;18.77;;;11.43;;
12369;SDS011;6249;52.128;9.986;2022-12-05T21:49:25;22.30;;;12.50;;
12369;SDS011;6249;52.128;9.986;2022-12-05T21:52:48;18.10;;;11.17;;
12369;SDS011;6249;52.128;9.986;2022-12-05T21:56:14;21.10;;;12.43;;
12369;SDS011;6249;52.128;9.986;2022-12-05T21:59:38;23.50;;;13.37;;
12369;SDS011;6249;52.128;9.986;2022-12-05T22:03:02;21.50;;;12.20;;
12369;SDS011;6249;52.128;9.986;2022-12-05T22:06:23;20.67;;;12.77;;
12369;SDS011;6249;52.128;9.986;2022-12-05T22:09:44;25.13;;;13.27;;
12369;SDS011;6249;52.128;9.986;2022-12-05T22:13:06;22.73;;;12.80;;
12369;SDS011;6249;52.128;9.986;2022-12-05T22:16:29;22.90;;;12.93;;
12369;SDS011;6249;52.128;9.986;2022-12-05T22:19:50;19.37;;;12.03;;
12369;SDS011;6249;52.128;9.986;2022-12-05T22:23:14;20.93;;;11.50;;
12369;SDS011;6249;52.128;9.986;2022-12-05T22:26:39;21.20;;;11.73;;
12369;SDS011;6249;52.128;9.986;2022-12-05T22:30:00;19.80;;;11.70;;
12369;SDS011;6249;52.128;9.986;2022-12-05T22:33:23;19.53;;;10.87;;
12369;SDS011;6249;52.128;9.986;2022-12-05T22:36:46;21.53;;;12.37;;
12369;SDS011;6249;52.128;9.986;2022-12-05T22:40:10;19.30;;;10.50;;
12369;SDS011;6249;52.128;9.986;2022-12-05T22:43:34;18.63;;;10.50;;
12369;SDS011;6249;52.128;9.986;2022-12-05T22:46:58;18.63;;;10.53;;
12369;SDS011;6249;52.128;9.986;2022-12-05T22:50:21;20.40;;;11.37;;